Time;durP1;ratioP1;P1;durP2;ratioP2;P2;SDS_P1;SDS_P2;PMS_P1;PMS_P2;Temp;Humidity;BMP_temperature;BMP_pressure;BME280_temperature;BME280_humidity;BME280_pressure;Samples;Min_cycle;Max_cycle;Signal;HPM_P1;HPM_P2
2022/07/06 00:01:41;;;;;;;0.00;0.00;;;20.60;80.10;;;;;;4936446;29;20039;-66
2022/07/06 00:04:07;;;;;;;0.20;0.17;;;20.70;80.40;;;;;;4936479;29;20036;-66
2022/07/06 00:06:33;;;;;;;0.00;0.00;;;20.60;80.40;;;;;;4936728;29;20502;-66
2022/07/06 00:08:59;;;;;;;0.13;0.13;;;20.50;80.90;;;;;;4951268;29;20066;-66
2022/07/06 00:11:25;;;;;;;0.10;0.10;;;20.40;81.50;;;;;;4935018;29;20436;-66
2022/07/06 00:13:51;;;;;;;0.13;0.13;;;20.30;81.90;;;;;;4935060;29;20155;-66
2022/07/06 00:16:18;;;;;;;1.10;0.35;;;20.40;82.20;;;;;;4936548;29;20067;-66
2022/07/06 00:18:45;;;;;;;0.30;0.20;;;20.40;82.00;;;;;;4934978;29;20023;-66
2022/07/06 00:21:11;;;;;;;1.13;0.32;;;20.40;82.20;;;;;;4935069;29;20396;-66
2022/07/06 00:23:37;;;;;;;0.00;0.00;;;20.30;82.30;;;;;;4936510;29;20030;-67
2022/07/06 00:26:03;;;;;;;0.10;0.03;;;20.40;82.70;;;;;;4935007;29;20365;-66
2022/07/06 00:28:29;;;;;;;0.15;0.15;;;20.40;82.30;;;;;;4936186;29;20023;-66
2022/07/06 00:30:55;;;;;;;0.00;0.00;;;20.40;83.00;;;;;;4935589;29;20042;-66
2022/07/06 00:33:21;;;;;;;0.35;0.22;;;20.40;82.80;;;;;;4935993;29;20384;-66
2022/07/06 00:35:48;;;;;;;0.25;0.25;;;20.50;82.90;;;;;;4935933;29;20036;-66
2022/07/06 00:38:13;;;;;;;0.05;0.05;;;20.50;82.70;;;;;;4935912;29;20036;-65
2022/07/06 00:40:39;;;;;;;0.43;0.43;;;20.50;83.00;;;;;;4934675;29;20392;-65
2022/07/06 00:43:05;;;;;;;0.00;0.00;;;20.40;83.30;;;;;;4935489;29;20031;-66
2022/07/06 00:45:31;;;;;;;0.30;0.30;;;20.40;83.50;;;;;;4934664;29;20087;-65
2022/07/06 00:47:57;;;;;;;0.25;0.15;;;20.30;83.70;;;;;;4934850;29;20035;-65
2022/07/06 00:50:23;;;;;;;0.10;0.10;;;20.30;84.10;;;;;;4936068;29;20059;-66
2022/07/06 00:53:10;;;;;;;0.40;0.40;;;20.30;84.30;;;;;;4934315;29;20032;-66
2022/07/06 00:55:39;;;;;;;0.15;0.15;;;20.30;84.40;;;;;;4935352;29;20470;-66
2022/07/06 00:58:07;;;;;;;0.10;0.10;;;20.10;84.90;;;;;;4934735;29;20063;-66
2022/07/06 01:00:33;;;;;;;0.00;0.00;;;20.20;85.30;;;;;;4935207;28;20472;-65
2022/07/06 01:02:59;;;;;;;0.15;0.15;;;20.00;85.70;;;;;;4934982;29;20547;-66
2022/07/06 01:05:26;;;;;;;0.00;0.00;;;20.00;86.10;;;;;;4935873;29;20131;-66
2022/07/06 01:07:53;;;;;;;0.22;0.22;;;20.00;86.30;;;;;;4938295;29;20031;-67
2022/07/06 01:10:20;;;;;;;0.00;0.00;;;19.80;87.00;;;;;;4919019;29;20040;-66
2022/07/06 01:12:48;;;;;;;0.30;0.30;;;19.50;88.10;;;;;;4935910;28;20158;-66
2022/07/06 01:15:18;;;;;;;0.93;0.57;;;19.60;88.40;;;;;;4950905;28;20106;-66
2022/07/06 01:17:44;;;;;;;0.15;0.15;;;19.50;88.90;;;;;;4935150;29;20031;-66
2022/07/06 01:20:24;;;;;;;0.25;0.20;;;19.50;89.10;;;;;;4935084;29;20039;-66
2022/07/06 01:22:52;;;;;;;0.45;0.35;;;19.50;89.50;;;;;;4949525;28;20408;-66
2022/07/06 01:25:20;;;;;;;0.20;0.20;;;19.60;89.50;;;;;;4965293;28;20028;-66
2022/07/06 01:27:47;;;;;;;0.25;0.20;;;19.60;89.70;;;;;;4952994;28;20035;-67
2022/07/06 01:30:16;;;;;;;19.13;0.70;;;19.60;89.60;;;;;;4954184;28;20035;-66
2022/07/06 01:32:42;;;;;;;0.13;0.10;;;19.70;89.70;;;;;;4952489;28;20028;-66
2022/07/06 01:35:13;;;;;;;0.32;0.32;;;19.50;89.90;;;;;;4952781;28;20035;-66
2022/07/06 01:37:40;;;;;;;0.03;0.03;;;19.60;90.10;;;;;;4954250;28;20071;-66
2022/07/06 01:40:09;;;;;;;1.00;0.77;;;19.50;90.30;;;;;;4952876;29;20035;-66
2022/07/06 01:42:35;;;;;;;0.10;0.10;;;19.40;90.60;;;;;;4935139;29;20035;-66
2022/07/06 01:45:03;;;;;;;0.13;0.10;;;19.40;90.90;;;;;;4949671;29;20111;-66
2022/07/06 01:47:29;;;;;;;0.00;0.00;;;19.30;91.20;;;;;;4934495;29;20468;-67
2022/07/06 01:49:59;;;;;;;0.73;0.73;;;19.30;91.20;;;;;;4934235;29;20110;-66
2022/07/06 01:52:26;;;;;;;0.00;0.00;;;19.20;91.50;;;;;;4933356;29;20047;-66
2022/07/06 01:54:52;;;;;;;0.10;0.10;;;19.20;91.70;;;;;;4934850;29;20035;-66
2022/07/06 01:57:17;;;;;;;0.00;0.00;;;19.20;91.70;;;;;;4933230;29;20042;-66
2022/07/06 01:59:44;;;;;;;3.28;0.60;;;19.20;91.70;;;;;;4934370;29;20052;-66
2022/07/06 02:02:10;;;;;;;0.93;0.55;;;19.30;91.70;;;;;;4933888;29;20127;-66
2022/07/06 02:04:36;;;;;;;0.08;0.08;;;19.30;91.70;;;;;;4934333;29;20061;-66
2022/07/06 02:07:02;;;;;;;0.10;0.10;;;19.20;91.90;;;;;;4934365;29;20619;-66
2022/07/06 02:09:28;;;;;;;0.45;0.10;;;19.20;92.00;;;;;;4934543;29;20094;-66
2022/07/06 02:11:54;;;;;;;0.08;0.08;;;19.20;92.20;;;;;;4934354;29;20396;-66
2022/07/06 02:14:19;;;;;;;0.05;0.03;;;19.20;92.30;;;;;;4934029;29;20050;-66
2022/07/06 02:16:45;;;;;;;0.47;0.35;;;19.10;92.40;;;;;;4934139;29;20039;-66
2022/07/06 02:19:11;;;;;;;0.20;0.10;;;19.10;92.70;;;;;;4934082;29;20028;-66
2022/07/06 02:21:36;;;;;;;0.20;0.20;;;19.00;92.80;;;;;;4934115;29;20030;-66
2022/07/06 02:24:02;;;;;;;0.00;0.00;;;19.00;92.90;;;;;;4932726;29;20019;-66
2022/07/06 02:26:28;;;;;;;1.20;0.98;;;19.00;93.00;;;;;;4934293;29;20036;-66
2022/07/06 02:28:54;;;;;;;0.03;0.03;;;19.00;93.00;;;;;;4933988;29;20109;-67
2022/07/06 02:31:20;;;;;;;0.10;0.10;;;19.00;93.00;;;;;;4934165;29;20044;-66
2022/07/06 02:33:45;;;;;;;0.00;0.00;;;18.90;93.20;;;;;;4948195;28;20503;-67
2022/07/06 02:36:11;;;;;;;0.75;0.20;;;18.60;93.50;;;;;;4934299;29;20043;-66
2022/07/06 02:38:37;;;;;;;0.00;0.00;;;18.60;94.00;;;;;;4948458;29;20031;-66
2022/07/06 02:41:02;;;;;;;0.00;0.00;;;18.60;94.20;;;;;;4948896;29;20035;-66
2022/07/06 02:43:28;;;;;;;0.05;0.03;;;18.60;94.30;;;;;;4933485;29;20031;-66
2022/07/06 02:45:54;;;;;;;0.32;0.32;;;18.60;94.40;;;;;;4934257;29;20028;-67
2022/07/06 02:48:21;;;;;;;0.00;0.00;;;18.40;94.90;;;;;;4932557;29;20035;-66
2022/07/06 02:50:47;;;;;;;0.10;0.10;;;18.40;95.30;;;;;;4933804;29;20402;-67
2022/07/06 02:53:13;;;;;;;0.08;0.08;;;18.40;95.30;;;;;;4933711;29;20031;-66
2022/07/06 02:55:39;;;;;;;0.00;0.00;;;18.40;95.20;;;;;;4948885;29;20031;-66
2022/07/06 02:58:05;;;;;;;0.20;0.20;;;18.50;95.30;;;;;;4933700;29;20042;-66
2022/07/06 03:00:31;;;;;;;0.38;0.38;;;18.20;95.70;;;;;;4933540;29;20396;-67
2022/07/06 03:02:57;;;;;;;0.20;0.20;;;18.30;95.70;;;;;;4933306;29;20492;-66
2022/07/06 03:05:23;;;;;;;1.63;0.25;;;18.30;95.80;;;;;;4933782;29;20024;-66
2022/07/06 03:07:49;;;;;;;0.85;0.57;;;18.10;96.30;;;;;;4948481;28;20039;-67
2022/07/06 03:10:14;;;;;;;0.10;0.10;;;18.00;96.50;;;;;;4933549;29;20039;-67
2022/07/06 03:12:40;;;;;;;0.00;0.00;;;18.00;96.90;;;;;;4948420;29;20036;-66
2022/07/06 03:15:09;;;;;;;1.55;0.93;;;18.00;96.90;;;;;;4952892;28;20054;-66
2022/07/06 03:17:35;;;;;;;0.00;0.00;;;18.00;97.00;;;;;;4952768;28;20463;-67
2022/07/06 03:20:02;;;;;;;0.00;0.00;;;18.10;97.00;;;;;;4951538;28;20054;-67
2022/07/06 03:22:29;;;;;;;0.25;0.15;;;18.00;96.80;;;;;;4952754;28;20031;-66
2022/07/06 03:24:54;;;;;;;0.05;0.05;;;17.90;97.00;;;;;;4952386;28;20026;-66
2022/07/06 03:27:20;;;;;;;0.40;0.20;;;17.80;97.50;;;;;;4952671;29;20035;-66
2022/07/06 03:29:46;;;;;;;0.00;0.00;;;17.70;98.00;;;;;;4951426;28;20039;-66
2022/07/06 03:32:11;;;;;;;0.20;0.20;;;17.80;98.00;;;;;;4951498;29;20391;-66
2022/07/06 03:34:37;;;;;;;0.30;0.28;;;17.70;98.10;;;;;;4954681;28;20039;-66
2022/07/06 03:37:03;;;;;;;2.28;0.55;;;17.60;98.40;;;;;;4955852;29;20044;-66
2022/07/06 03:39:28;;;;;;;0.00;0.00;;;17.60;98.50;;;;;;4954730;29;20031;-66
2022/07/06 03:41:54;;;;;;;0.20;0.20;;;17.60;98.70;;;;;;4955922;28;20490;-66
2022/07/06 03:44:20;;;;;;;0.00;0.00;;;17.70;98.30;;;;;;4929564;28;20059;-66
2022/07/06 03:46:46;;;;;;;0.10;0.10;;;17.60;98.40;;;;;;4947908;29;20042;-68
2022/07/06 03:49:11;;;;;;;0.00;0.00;;;17.50;98.60;;;;;;4947185;29;20024;-70
2022/07/06 03:51:37;;;;;;;0.10;0.10;;;17.40;98.90;;;;;;4946497;28;20046;-69
2022/07/06 03:54:03;;;;;;;0.57;0.57;;;17.40;98.90;;;;;;4934655;29;20036;-68
2022/07/06 03:56:29;;;;;;;0.10;0.10;;;17.40;98.90;;;;;;4938935;29;20036;-68
2022/07/06 03:58:57;;;;;;;0.63;0.25;;;17.40;99.30;;;;;;4936385;29;20510;-68
2022/07/06 04:01:23;;;;;;;0.20;0.20;;;17.30;99.40;;;;;;4935283;29;20063;-69
2022/07/06 04:03:49;;;;;;;0.20;0.20;;;17.30;99.90;;;;;;4929615;23;20447;-67
2022/07/06 04:06:15;;;;;;;0.47;0.30;;;17.30;99.70;;;;;;4936025;28;20043;-67
2022/07/06 04:08:41;;;;;;;0.00;0.00;;;17.40;99.60;;;;;;4972133;28;20066;-67
2022/07/06 04:11:07;;;;;;;0.03;0.03;;;17.40;99.40;;;;;;4964957;28;20030;-67
2022/07/06 04:13:33;;;;;;;0.10;0.08;;;17.30;99.60;;;;;;4949894;29;20023;-68
2022/07/06 04:15:59;;;;;;;3.53;1.65;;;17.30;99.70;;;;;;4957508;28;20034;-66
2022/07/06 04:18:25;;;;;;;0.15;0.15;;;17.20;99.90;;;;;;4945577;29;20027;-67
2022/07/06 04:20:50;;;;;;;0.35;0.35;;;17.20;99.90;;;;;;4960812;28;20094;-67
2022/07/06 04:23:16;;;;;;;0.15;0.13;;;17.20;99.90;;;;;;4959799;28;20024;-68
2022/07/06 04:25:42;;;;;;;0.65;0.65;;;17.20;99.90;;;;;;4932055;29;20035;-67
2022/07/06 04:28:08;;;;;;;0.05;0.03;;;17.10;99.90;;;;;;4916959;29;20035;-67
2022/07/06 04:30:33;;;;;;;0.77;0.55;;;17.20;99.90;;;;;;4916606;29;20040;-67
2022/07/06 04:32:59;;;;;;;0.30;0.30;;;17.20;99.90;;;;;;4916863;29;20032;-66
2022/07/06 04:35:25;;;;;;;0.10;0.10;;;17.20;99.90;;;;;;4916966;29;20032;-67
2022/07/06 04:37:51;;;;;;;2.58;0.55;;;17.20;99.90;;;;;;4922447;29;20043;-67
2022/07/06 04:40:17;;;;;;;0.25;0.20;;;17.20;99.90;;;;;;4959373;28;20020;-67
2022/07/06 04:42:43;;;;;;;0.00;0.00;;;17.20;99.90;;;;;;4943813;28;20023;-67
2022/07/06 04:45:09;;;;;;;0.10;0.08;;;17.40;99.90;;;;;;4956684;28;20032;-67
2022/07/06 04:47:35;;;;;;;0.10;0.10;;;17.30;99.90;;;;;;4933938;29;20035;-67
2022/07/06 04:50:03;;;;;;;0.00;0.00;;;17.50;99.80;;;;;;4950114;29;20539;-67
2022/07/06 04:52:28;;;;;;;0.00;0.00;;;17.50;99.30;;;;;;4950077;28;20095;-66
2022/07/06 04:54:55;;;;;;;0.40;0.30;;;17.50;99.50;;;;;;4935401;29;20063;-67
2022/07/06 04:57:21;;;;;;;0.00;0.00;;;17.60;99.20;;;;;;4950263;29;20044;-67
2022/07/06 04:59:47;;;;;;;0.10;0.10;;;17.70;98.90;;;;;;4949847;29;20034;-67
2022/07/06 05:02:13;;;;;;;0.65;0.55;;;17.80;98.70;;;;;;4935239;29;20399;-66
2022/07/06 05:04:39;;;;;;;0.10;0.10;;;17.80;98.40;;;;;;4949721;28;20110;-66
2022/07/06 05:07:05;;;;;;;0.00;0.00;;;17.90;98.10;;;;;;4950068;29;20031;-67
2022/07/06 05:09:31;;;;;;;0.03;0.03;;;18.00;98.10;;;;;;4949777;29;20027;-66
2022/07/06 05:11:57;;;;;;;1.35;0.95;;;17.90;98.00;;;;;;4949852;29;20042;-66
2022/07/06 05:14:23;;;;;;;0.05;0.05;;;18.00;98.30;;;;;;4935138;29;20059;-66
2022/07/06 05:16:48;;;;;;;0.00;0.00;;;18.20;98.00;;;;;;4952929;29;20039;-67
2022/07/06 05:19:14;;;;;;;0.00;0.00;;;18.40;96.60;;;;;;4953031;29;20019;-66
2022/07/06 05:21:40;;;;;;;0.00;0.00;;;18.30;96.90;;;;;;4954195;28;20035;-68
2022/07/06 05:24:06;;;;;;;0.13;0.10;;;18.40;97.10;;;;;;4954130;28;20027;-67
2022/07/06 05:26:32;;;;;;;0.00;0.00;;;18.80;96.40;;;;;;4952344;29;20079;-67
2022/07/06 05:28:58;;;;;;;0.28;0.28;;;18.90;94.90;;;;;;4953909;29;20537;-66
2022/07/06 05:31:24;;;;;;;0.30;0.30;;;19.20;94.90;;;;;;4953403;28;20044;-68
2022/07/06 05:33:49;;;;;;;0.32;0.32;;;19.50;93.80;;;;;;4949038;28;20039;-67
2022/07/06 05:36:16;;;;;;;0.10;0.10;;;19.70;93.60;;;;;;4933339;29;20512;-67
2022/07/06 05:38:42;;;;;;;0.00;0.00;;;19.70;93.20;;;;;;4933527;29;20503;-67
2022/07/06 05:41:08;;;;;;;0.00;0.00;;;19.90;92.80;;;;;;4948471;28;20099;-67
2022/07/06 05:43:36;;;;;;;0.00;0.00;;;19.90;92.70;;;;;;4934060;29;20456;-68
2022/07/06 05:46:03;;;;;;;0.00;0.00;;;19.90;93.10;;;;;;4948265;28;20030;-68
2022/07/06 05:51:13;;;;;;;0.10;0.10;;;19.60;93.40;;;;;;4952057;29;20027;-67
2022/07/06 05:53:39;;;;;;;0.00;0.00;;;19.60;93.50;;;;;;4947246;28;20066;-67
2022/07/06 05:56:05;;;;;;;0.00;0.00;;;19.70;93.70;;;;;;4932192;29;20024;-68
2022/07/06 05:58:31;;;;;;;0.00;0.00;;;19.90;93.00;;;;;;4933576;29;20071;-67
2022/07/06 06:00:56;;;;;;;0.43;0.35;;;19.90;93.00;;;;;;4947894;28;20028;-67
2022/07/06 06:03:22;;;;;;;0.00;0.00;;;19.90;92.90;;;;;;4946001;28;20044;-67
2022/07/06 06:05:48;;;;;;;0.00;0.00;;;19.90;92.40;;;;;;4933230;29;20094;-68
2022/07/06 06:08:14;;;;;;;0.00;0.00;;;19.70;93.00;;;;;;4944925;29;20050;-68
2022/07/06 06:10:40;;;;;;;0.00;0.00;;;19.80;92.80;;;;;;4933587;29;20106;-67
2022/07/06 06:13:05;;;;;;;0.00;0.00;;;19.90;92.60;;;;;;4932996;29;20114;-67
2022/07/06 06:15:31;;;;;;;0.08;0.08;;;19.70;92.90;;;;;;4933676;28;20128;-67
2022/07/06 06:17:57;;;;;;;2.95;1.42;;;19.70;93.10;;;;;;4976170;28;20042;-68
2022/07/06 06:20:23;;;;;;;0.00;0.00;;;19.70;92.80;;;;;;4951612;28;20050;-67
2022/07/06 06:22:55;;;;;;;0.10;0.10;;;19.70;92.90;;;;;;4982255;28;20058;-68
2022/07/06 06:25:41;;;;;;;0.28;0.28;;;19.70;92.80;;;;;;4951102;28;20035;-72
2022/07/06 06:28:09;;;;;;;0.00;0.00;;;19.30;93.30;;;;;;4951145;28;20098;-72
2022/07/06 06:30:36;;;;;;;0.43;0.35;;;18.80;94.40;;;;;;4982161;28;20475;-71
2022/07/06 06:33:15;;;;;;;0.10;0.10;;;18.40;95.50;;;;;;4950866;28;20484;-72
2022/07/06 06:35:49;;;;;;;0.10;0.10;;;18.10;96.30;;;;;;4965325;28;20044;-72
2022/07/06 06:38:17;;;;;;;0.50;0.45;;;18.10;97.00;;;;;;4950956;28;20086;-71
2022/07/06 06:40:42;;;;;;;0.00;0.00;;;18.10;97.20;;;;;;4966456;28;20102;-71
2022/07/06 06:43:09;;;;;;;0.52;0.52;;;18.00;97.30;;;;;;4951199;28;20122;-71
2022/07/06 06:45:35;;;;;;;0.10;0.10;;;18.00;97.50;;;;;;4961033;28;20035;-71
2022/07/06 06:48:01;;;;;;;0.10;0.10;;;18.00;97.90;;;;;;4951628;28;20061;-70
2022/07/06 06:50:27;;;;;;;0.28;0.28;;;17.90;98.00;;;;;;4951342;28;20090;-71
2022/07/06 06:52:53;;;;;;;0.00;0.00;;;17.90;98.00;;;;;;4950937;28;20126;-71
2022/07/06 06:55:18;;;;;;;0.00;0.00;;;17.90;98.00;;;;;;4951120;28;20535;-71
2022/07/06 06:57:45;;;;;;;0.70;0.38;;;17.90;98.20;;;;;;4966074;28;20037;-71
2022/07/06 07:00:12;;;;;;;0.10;0.10;;;18.00;98.10;;;;;;4950758;28;20027;-72
2022/07/06 07:02:38;;;;;;;0.00;0.00;;;18.00;98.10;;;;;;4965844;28;20038;-71
2022/07/06 07:05:05;;;;;;;0.00;0.00;;;18.00;98.20;;;;;;4951259;28;20027;-70
2022/07/06 07:07:32;;;;;;;0.00;0.00;;;18.00;98.10;;;;;;4950959;28;20113;-70
2022/07/06 07:09:58;;;;;;;0.00;0.00;;;18.10;98.30;;;;;;4953003;29;20414;-71
2022/07/06 07:12:24;;;;;;;0.20;0.20;;;18.20;98.00;;;;;;4969547;28;20035;-71
2022/07/06 07:14:50;;;;;;;0.45;0.13;;;18.20;97.70;;;;;;4954374;28;20391;-70
2022/07/06 07:17:16;;;;;;;0.00;0.00;;;18.30;97.50;;;;;;4969938;28;20035;-71
2022/07/06 07:19:41;;;;;;;0.32;0.32;;;18.20;97.60;;;;;;4954593;28;20039;-70
2022/07/06 07:22:07;;;;;;;0.10;0.10;;;18.30;97.80;;;;;;4955199;28;20031;-74
2022/07/06 07:24:33;;;;;;;0.38;0.38;;;18.40;97.80;;;;;;4954638;28;20054;-72
2022/07/06 07:26:59;;;;;;;0.00;0.00;;;18.50;97.40;;;;;;4954707;28;20065;-72
2022/07/06 07:29:25;;;;;;;0.10;0.10;;;18.50;97.10;;;;;;4954648;28;20062;-72
2022/07/06 07:31:50;;;;;;;1.00;0.80;;;18.50;97.10;;;;;;4969246;28;20065;-72
2022/07/06 07:34:17;;;;;;;0.38;0.30;;;18.60;96.90;;;;;;4955080;28;20031;-71
2022/07/06 07:36:42;;;;;;;0.00;0.00;;;18.60;96.20;;;;;;4937267;28;20039;-71
2022/07/06 07:39:08;;;;;;;2.40;1.42;;;18.60;96.20;;;;;;4936442;29;20032;-71
2022/07/06 07:41:34;;;;;;;0.55;0.55;;;18.60;95.80;;;;;;4936118;29;20062;-71
2022/07/06 07:44:00;;;;;;;0.20;0.20;;;18.60;95.70;;;;;;4935630;29;20040;-72
2022/07/06 07:46:26;;;;;;;0.00;0.00;;;18.70;95.60;;;;;;4937298;29;20506;-72
2022/07/06 07:48:51;;;;;;;0.00;0.00;;;18.90;95.20;;;;;;4953810;28;20349;-72
2022/07/06 07:51:18;;;;;;;4.85;0.43;;;19.00;95.00;;;;;;4953679;28;20106;-73
2022/07/06 07:53:44;;;;;;;0.43;0.43;;;19.00;94.60;;;;;;4954019;28;20081;-72
2022/07/06 07:56:10;;;;;;;0.00;0.00;;;19.20;94.50;;;;;;4954533;28;20024;-72
2022/07/06 07:58:35;;;;;;;0.03;0.03;;;19.20;94.30;;;;;;4953538;29;20371;-72
2022/07/06 08:01:01;;;;;;;0.52;0.52;;;19.30;94.20;;;;;;4941363;29;20035;-72
2022/07/06 08:03:27;;;;;;;0.00;0.00;;;19.40;93.90;;;;;;4935064;29;20035;-72
2022/07/06 08:05:53;;;;;;;0.70;0.43;;;19.60;92.90;;;;;;4935851;29;20028;-72
2022/07/06 08:08:19;;;;;;;0.10;0.10;;;19.50;92.90;;;;;;4935991;29;20143;-71
2022/07/06 08:10:45;;;;;;;0.22;0.17;;;19.60;92.90;;;;;;4935752;29;20031;-72
2022/07/06 08:13:11;;;;;;;2.28;0.88;;;19.70;93.00;;;;;;4935360;29;20040;-72
2022/07/06 08:15:37;;;;;;;0.47;0.38;;;19.80;92.40;;;;;;4935830;29;20107;-72
2022/07/06 08:18:04;;;;;;;0.85;0.73;;;20.00;92.50;;;;;;4963277;28;20031;-71
2022/07/06 08:20:30;;;;;;;0.35;0.20;;;20.00;91.70;;;;;;4968816;28;20027;-74
2022/07/06 08:22:56;;;;;;;0.57;0.30;;;19.90;92.20;;;;;;4953219;28;20039;-71
2022/07/06 08:25:22;;;;;;;0.10;0.10;;;19.90;91.80;;;;;;4954023;28;20028;-73
2022/07/06 08:27:48;;;;;;;0.30;0.30;;;19.90;91.60;;;;;;4953583;28;20118;-71
2022/07/06 08:30:14;;;;;;;0.70;0.55;;;20.00;91.60;;;;;;4953475;28;20069;-71
2022/07/06 08:32:42;;;;;;;0.00;0.00;;;20.00;91.30;;;;;;4968822;28;20027;-72
2022/07/06 08:35:10;;;;;;;0.20;0.20;;;20.00;90.90;;;;;;4951454;29;20828;-72
2022/07/06 08:37:36;;;;;;;0.17;0.17;;;19.90;91.20;;;;;;4968062;28;20054;-72
2022/07/06 08:40:03;;;;;;;0.45;0.45;;;19.90;91.30;;;;;;4944731;28;20460;-72
2022/07/06 08:42:32;;;;;;;1.52;0.98;;;20.00;91.40;;;;;;4935383;29;20070;-72
2022/07/06 08:45:00;;;;;;;0.08;0.08;;;20.00;90.80;;;;;;4949547;28;20036;-76
2022/07/06 08:47:30;;;;;;;6.28;1.10;;;20.00;90.50;;;;;;4943555;29;20062;-70
2022/07/06 08:49:56;;;;;;;0.67;0.60;;;19.90;90.30;;;;;;4952698;28;20085;-66
2022/07/06 08:52:25;;;;;;;0.00;0.00;;;20.10;91.30;;;;;;4948889;28;20031;-65
2022/07/06 08:54:51;;;;;;;0.00;0.00;;;20.60;90.30;;;;;;4954590;28;20039;-66
2022/07/06 08:57:18;;;;;;;0.45;0.45;;;21.00;88.50;;;;;;4951090;28;20037;-64
2022/07/06 08:59:44;;;;;;;0.00;0.00;;;21.00;87.90;;;;;;4934936;28;20042;-64
2022/07/06 09:02:13;;;;;;;0.20;0.10;;;20.50;87.70;;;;;;4933731;29;20028;-64
2022/07/06 09:04:42;;;;;;;2.50;1.42;;;20.50;88.20;;;;;;4948877;28;20045;-64
2022/07/06 09:07:08;;;;;;;0.00;0.00;;;20.70;88.40;;;;;;4949388;29;20035;-65
2022/07/06 09:09:36;;;;;;;0.10;0.10;;;21.20;87.40;;;;;;4948428;29;20061;-64
2022/07/06 09:12:02;;;;;;;0.13;0.10;;;21.50;85.80;;;;;;4968901;28;20027;-65
2022/07/06 09:14:29;;;;;;;0.10;0.10;;;21.70;83.60;;;;;;4954423;28;20031;-65
2022/07/06 09:17:05;;;;;;;0.30;0.22;;;21.30;83.90;;;;;;4954604;28;20027;-66
2022/07/06 09:19:35;;;;;;;3.95;1.55;;;21.10;84.60;;;;;;4960351;28;20086;-65
2022/07/06 09:22:02;;;;;;;0.10;0.00;;;21.00;84.20;;;;;;4945624;29;20031;-65
2022/07/06 09:24:28;;;;;;;0.00;0.00;;;21.00;85.30;;;;;;4953969;28;20039;-65
2022/07/06 09:26:57;;;;;;;0.00;0.00;;;21.10;84.70;;;;;;4954570;28;20038;-66
2022/07/06 09:29:32;;;;;;;0.00;0.00;;;21.00;84.10;;;;;;4951036;29;20031;-65
2022/07/06 09:32:00;;;;;;;0.47;0.35;;;21.00;84.90;;;;;;4968428;28;20403;-65
2022/07/06 09:34:42;;;;;;;3.00;0.22;;;21.30;84.20;;;;;;4953791;28;20037;-65
2022/07/06 09:37:08;;;;;;;0.00;0.00;;;21.60;83.00;;;;;;4953546;28;20039;-66
2022/07/06 09:39:33;;;;;;;0.57;0.57;;;21.50;82.80;;;;;;4952619;28;20031;-65
2022/07/06 09:42:03;;;;;;;0.73;0.17;;;21.40;83.00;;;;;;4945759;28;20041;-65
2022/07/06 09:44:38;;;;;;;0.57;0.57;;;21.50;82.80;;;;;;4949506;28;20031;-66
2022/07/06 09:47:08;;;;;;;0.00;0.00;;;21.50;83.00;;;;;;4945196;28;20075;-66
2022/07/06 09:49:34;;;;;;;0.35;0.35;;;21.60;83.90;;;;;;4952206;28;20027;-65
2022/07/06 09:52:07;;;;;;;0.43;0.43;;;21.80;82.20;;;;;;4940874;29;20059;-65
2022/07/06 09:54:38;;;;;;;0.25;0.25;;;21.80;83.10;;;;;;4941625;28;20443;-65
2022/07/06 09:57:05;;;;;;;0.10;0.10;;;21.90;81.50;;;;;;4937871;29;20035;-65
2022/07/06 09:59:34;;;;;;;0.08;0.08;;;21.80;82.10;;;;;;4951466;28;20028;-66
2022/07/06 10:02:04;;;;;;;0.30;0.30;;;21.90;81.60;;;;;;4939352;29;20495;-66
2022/07/06 10:04:31;;;;;;;1.20;0.75;;;21.70;81.80;;;;;;4970818;23;20042;-72
2022/07/06 10:06:58;;;;;;;0.15;0.15;;;21.90;80.70;;;;;;4946444;28;20039;-73
2022/07/06 10:09:26;;;;;;;0.00;0.00;;;21.90;82.30;;;;;;4945478;28;20618;-72
2022/07/06 10:12:01;;;;;;;0.00;0.00;;;22.10;80.60;;;;;;4966879;28;20106;-72
2022/07/06 10:14:32;;;;;;;0.00;0.00;;;22.30;81.00;;;;;;4963966;28;20390;-73
2022/07/06 10:17:02;;;;;;;0.43;0.35;;;22.70;80.60;;;;;;4967720;28;20066;-73
2022/07/06 10:19:30;;;;;;;0.00;0.00;;;23.00;79.80;;;;;;4966784;28;20114;-73
2022/07/06 10:22:00;;;;;;;0.00;0.00;;;23.20;78.60;;;;;;4956842;28;20027;-73
2022/07/06 10:24:28;;;;;;;0.17;0.17;;;23.30;78.00;;;;;;4966082;28;20117;-73
2022/07/06 10:26:55;;;;;;;0.43;0.43;;;23.10;77.10;;;;;;4958684;28;20039;-73
2022/07/06 10:29:21;;;;;;;0.68;0.52;;;22.80;77.70;;;;;;4962055;28;20125;-73
2022/07/06 10:31:48;;;;;;;0.10;0.08;;;22.30;78.60;;;;;;4968119;28;20038;-73
2022/07/06 10:34:18;;;;;;;0.30;0.30;;;22.10;79.80;;;;;;4963191;28;20042;-73
2022/07/06 10:36:50;;;;;;;0.00;0.00;;;22.30;78.70;;;;;;4967694;28;20114;-74
2022/07/06 10:42:46;;;;;;;0.00;0.00;;;21.50;78.80;;;;;;4968115;28;20504;-74
2022/07/06 10:45:15;;;;;;;0.15;0.15;;;21.80;79.00;;;;;;4961105;28;20035;-74
2022/07/06 10:47:42;;;;;;;0.00;0.00;;;22.30;78.50;;;;;;4959222;28;20552;-72
2022/07/06 10:50:10;;;;;;;0.00;0.00;;;22.60;77.80;;;;;;4970500;28;20045;-73
2022/07/06 10:53:02;;;;;;;10.02;0.35;;;22.70;76.80;;;;;;4951026;29;20114;-72
2022/07/06 10:55:38;;;;;;;0.00;0.00;;;22.60;74.80;;;;;;4962276;28;20078;-74
2022/07/06 10:58:05;;;;;;;0.10;0.10;;;22.60;76.70;;;;;;4963369;28;20077;-73
2022/07/06 11:00:54;;;;;;;0.17;0.17;;;22.80;74.70;;;;;;4954480;28;20030;-73
2022/07/06 11:03:32;;;;;;;0.15;0.10;;;23.00;74.40;;;;;;4964107;28;20134;-74
2022/07/06 11:06:11;;;;;;;0.00;0.00;;;23.20;73.20;;;;;;4952136;28;20456;-73
2022/07/06 11:08:55;;;;;;;1.45;0.73;;;23.20;70.80;;;;;;4947342;28;20506;-73
2022/07/06 11:11:26;;;;;;;0.15;0.10;;;23.10;70.20;;;;;;4951522;28;20044;-73
2022/07/06 11:14:04;;;;;;;0.00;0.00;;;22.50;70.50;;;;;;4967988;28;20486;-73
2022/07/06 11:16:38;;;;;;;0.00;0.00;;;22.80;71.70;;;;;;4954308;28;20038;-73
2022/07/06 11:19:05;;;;;;;0.25;0.13;;;23.20;70.50;;;;;;4966187;28;20550;-73
2022/07/06 11:21:39;;;;;;;0.00;0.00;;;23.20;68.30;;;;;;4955395;28;20089;-73
2022/07/06 11:24:11;;;;;;;0.17;0.10;;;23.00;69.00;;;;;;4959941;28;20027;-73
2022/07/06 11:26:38;;;;;;;0.00;0.00;;;22.70;68.70;;;;;;4955894;28;20058;-74
2022/07/06 11:29:10;;;;;;;1.15;1.02;;;22.60;67.70;;;;;;4946842;29;20365;-74
2022/07/06 11:31:46;;;;;;;2.92;0.20;;;23.00;68.20;;;;;;4954415;28;20391;-74
2022/07/06 11:34:20;;;;;;;4.55;0.52;;;23.10;68.50;;;;;;4956707;28;20027;-74
2022/07/06 11:36:47;;;;;;;0.10;0.05;;;23.40;67.90;;;;;;4956055;28;20125;-74
2022/07/06 11:39:14;;;;;;;0.03;0.00;;;23.60;65.90;;;;;;4960396;28;20023;-74
2022/07/06 11:41:41;;;;;;;0.28;0.20;;;23.70;64.80;;;;;;4967544;28;20125;-74
2022/07/06 11:44:07;;;;;;;0.10;0.03;;;23.80;66.40;;;;;;4969375;28;20030;-74
2022/07/06 11:46:35;;;;;;;0.17;0.13;;;23.80;65.80;;;;;;4970134;28;20027;-73
2022/07/06 11:49:07;;;;;;;0.00;0.00;;;23.60;65.00;;;;;;4966370;28;20092;-73
2022/07/06 11:51:36;;;;;;;0.22;0.22;;;23.70;66.00;;;;;;4954279;28;20082;-73
2022/07/06 11:54:15;;;;;;;0.32;0.32;;;24.00;64.50;;;;;;4959461;28;20066;-73
2022/07/06 11:56:58;;;;;;;0.03;0.03;;;24.00;64.50;;;;;;4959379;28;20052;-73
2022/07/06 11:59:31;;;;;;;0.35;0.35;;;24.20;65.20;;;;;;4968102;28;20027;-72
2022/07/06 12:02:06;;;;;;;0.00;0.00;;;24.40;65.10;;;;;;4959625;28;20027;-72
2022/07/06 12:04:34;;;;;;;0.00;0.00;;;24.30;63.30;;;;;;4968600;28;20035;-73
2022/07/06 12:07:04;;;;;;;1.70;0.70;;;23.90;63.50;;;;;;4960438;28;20074;-73
2022/07/06 12:09:35;;;;;;;1.05;0.70;;;24.40;63.70;;;;;;4969063;28;20035;-73
2022/07/06 12:12:02;;;;;;;0.10;0.10;;;24.60;61.00;;;;;;4959009;28;20035;-73
2022/07/06 12:14:30;;;;;;;0.38;0.38;;;24.90;61.40;;;;;;4964822;28;20419;-73
2022/07/06 12:17:02;;;;;;;0.00;0.00;;;24.10;62.80;;;;;;4968983;28;20041;-73
2022/07/06 12:19:27;;;;;;;0.00;0.00;;;24.50;64.10;;;;;;4967320;28;20065;-73
2022/07/06 12:21:53;;;;;;;0.10;0.10;;;24.80;63.50;;;;;;4973730;28;20467;-73
2022/07/06 12:24:22;;;;;;;0.30;0.08;;;25.10;63.30;;;;;;4960605;28;20022;-73
2022/07/06 12:26:49;;;;;;;0.80;0.75;;;25.30;62.80;;;;;;4969229;28;20035;-76
2022/07/06 12:29:17;;;;;;;0.00;0.00;;;25.10;62.00;;;;;;4971958;28;20109;-77
2022/07/06 12:31:56;;;;;;;1.10;0.65;;;24.70;62.10;;;;;;4971845;28;20041;-76
2022/07/06 12:34:26;;;;;;;0.93;0.22;;;24.90;62.20;;;;;;4970823;28;20054;-76
2022/07/06 12:36:58;;;;;;;0.10;0.10;;;25.10;61.30;;;;;;4970995;28;20031;-76
2022/07/06 12:39:27;;;;;;;0.00;0.00;;;25.00;61.60;;;;;;4962266;28;20039;-77
2022/07/06 12:41:56;;;;;;;1.17;0.73;;;24.90;62.40;;;;;;4957793;28;20031;-76
2022/07/06 12:44:24;;;;;;;0.47;0.22;;;25.40;61.40;;;;;;4965278;28;20057;-77
2022/07/06 12:47:01;;;;;;;0.68;0.63;;;25.60;61.60;;;;;;4971163;28;20034;-77
2022/07/06 12:49:27;;;;;;;1.85;0.65;;;25.70;61.70;;;;;;4951637;29;20027;-77
2022/07/06 12:52:00;;;;;;;0.05;0.05;;;25.60;61.50;;;;;;4974988;28;20039;-77
2022/07/06 12:54:30;;;;;;;0.10;0.10;;;25.80;62.20;;;;;;4963434;28;20031;-77
2022/07/06 12:57:21;;;;;;;0.05;0.05;;;25.60;62.20;;;;;;4955491;28;20031;-77